createdAt,value
2018-05-04T00:00:29.431Z,12.50
2018-05-04T00:01:01.073Z,14.25
2018-05-04T00:01:32.723Z,12.07
2018-05-04T00:02:04.379Z,12.37
2018-05-04T00:02:35.997Z,17.30
2018-05-04T00:03:07.644Z,13.02
2018-05-04T00:03:39.293Z,11.88
2018-05-04T00:04:10.957Z,13.20
2018-05-04T00:04:42.601Z,13.57
2018-05-04T00:05:14.244Z,15.13
2018-05-04T00:05:45.909Z,15.93
2018-05-04T00:06:17.539Z,16.40
2018-05-04T00:06:49.191Z,13.18
2018-05-04T00:07:20.824Z,15.88
2018-05-04T00:07:52.465Z,15.68
2018-05-04T00:08:24.107Z,16.80
2018-05-04T00:08:55.747Z,17.90
2018-05-04T00:09:27.402Z,15.75
2018-05-04T00:09:59.052Z,14.45
2018-05-04T00:10:30.680Z,13.00
2018-05-04T00:11:02.317Z,11.18
2018-05-04T00:11:33.959Z,13.35
2018-05-04T00:12:05.592Z,17.85
2018-05-04T00:12:37.212Z,14.68
2018-05-04T00:13:08.867Z,12.05
2018-05-04T00:13:40.481Z,11.73
2018-05-04T00:14:12.118Z,13.20
2018-05-04T00:14:43.736Z,12.05
2018-05-04T00:15:15.360Z,12.82
2018-05-04T00:15:47.009Z,11.80
2018-05-04T00:16:18.620Z,13.95
2018-05-04T00:16:50.272Z,15.35
2018-05-04T00:17:21.902Z,18.55
2018-05-04T00:17:53.534Z,12.77
2018-05-04T00:18:25.164Z,14.05
2018-05-04T00:18:56.798Z,14.93
2018-05-04T00:19:28.426Z,14.02
2018-05-04T00:20:00.068Z,18.25
2018-05-04T00:20:31.712Z,15.50
2018-05-04T00:21:03.348Z,15.63
2018-05-04T00:21:35.022Z,17.25
2018-05-04T00:22:06.658Z,14.27
2018-05-04T00:22:38.295Z,15.38
2018-05-04T00:23:09.907Z,15.20
2018-05-04T00:23:41.530Z,16.02
2018-05-04T00:24:13.146Z,17.23
2018-05-04T00:24:44.796Z,14.65
2018-05-04T00:25:16.420Z,18.98
2018-05-04T00:25:48.072Z,16.52
2018-05-04T00:26:19.839Z,18.08
2018-05-04T00:26:51.408Z,13.82
2018-05-04T00:27:23.060Z,16.90
2018-05-04T00:27:54.708Z,15.38
2018-05-04T00:28:26.361Z,15.77
2018-05-04T00:28:58.000Z,18.08
2018-05-04T00:29:29.622Z,13.38
2018-05-04T00:30:01.269Z,16.23
2018-05-04T00:30:32.916Z,14.52
2018-05-04T00:31:04.560Z,16.23
2018-05-04T00:31:36.192Z,13.40
2018-05-04T00:32:07.837Z,21.05
2018-05-04T00:32:39.459Z,12.95
2018-05-04T00:33:11.082Z,15.18
2018-05-04T00:33:42.708Z,12.48
2018-05-04T00:34:14.348Z,15.43
2018-05-04T00:34:45.984Z,16.27
2018-05-04T00:35:17.600Z,12.90
2018-05-04T00:35:49.262Z,15.52
2018-05-04T00:36:20.905Z,11.55
2018-05-04T00:36:52.542Z,12.93
2018-05-04T00:37:24.162Z,14.57
2018-05-04T00:37:55.810Z,13.15
2018-05-04T00:38:27.450Z,15.02
2018-05-04T00:38:59.074Z,12.73
2018-05-04T00:39:30.704Z,13.52
2018-05-04T00:40:02.384Z,14.87
2018-05-04T00:40:34.022Z,14.85
2018-05-04T00:41:05.660Z,17.58
2018-05-04T00:41:37.294Z,15.02
2018-05-04T00:42:08.936Z,18.60
2018-05-04T00:42:40.602Z,14.77
2018-05-04T00:43:12.239Z,17.00
2018-05-04T00:43:43.849Z,13.73
2018-05-04T00:44:15.499Z,16.60
2018-05-04T00:44:47.128Z,15.90
2018-05-04T00:45:18.762Z,15.73
2018-05-04T00:45:50.398Z,17.58
2018-05-04T00:46:22.098Z,12.93
2018-05-04T00:46:53.747Z,13.90
2018-05-04T00:47:25.374Z,15.23
2018-05-04T00:47:57.026Z,13.38
2018-05-04T00:48:28.672Z,16.27
2018-05-04T00:49:00.306Z,14.13
2018-05-04T00:49:31.926Z,14.10
2018-05-04T00:50:03.565Z,12.88
2018-05-04T00:50:35.199Z,15.82
2018-05-04T00:51:06.846Z,15.75
2018-05-04T00:51:38.472Z,12.27
2018-05-04T00:52:10.092Z,13.20
2018-05-04T00:52:41.720Z,14.65
2018-05-04T00:53:13.364Z,14.95
2018-05-04T00:54:03.530Z,14.48
2018-05-04T00:54:35.124Z,14.52
2018-05-04T00:55:06.757Z,12.68
2018-05-04T00:55:38.388Z,11.38
2018-05-04T00:56:10.045Z,15.90
2018-05-04T00:56:41.682Z,13.43
2018-05-04T00:57:13.303Z,12.85
2018-05-04T00:57:44.938Z,14.75
2018-05-04T00:58:16.553Z,15.00
2018-05-04T00:58:48.186Z,12.77
2018-05-04T00:59:19.811Z,14.02
2018-05-04T00:59:51.428Z,11.12
2018-05-04T01:00:23.064Z,12.27
2018-05-04T01:00:54.713Z,14.13
2018-05-04T01:01:26.376Z,12.57
2018-05-04T01:01:58.000Z,14.07
2018-05-04T01:02:29.636Z,11.07
2018-05-04T01:03:01.288Z,13.00
2018-05-04T01:03:32.924Z,18.55
2018-05-04T01:04:04.562Z,12.55
2018-05-04T01:04:36.188Z,13.50
2018-05-04T01:05:07.816Z,14.95
2018-05-04T01:05:39.459Z,16.90
2018-05-04T01:06:11.135Z,15.50
2018-05-04T01:06:42.766Z,12.15
2018-05-04T01:07:14.400Z,14.40
2018-05-04T01:07:46.044Z,17.00
2018-05-04T01:08:17.714Z,13.93
2018-05-04T01:08:49.344Z,18.00
2018-05-04T01:09:20.996Z,13.68
2018-05-04T01:09:52.624Z,19.65
2018-05-04T01:10:24.280Z,16.62
2018-05-04T01:10:55.892Z,13.52
2018-05-04T01:11:27.544Z,14.98
2018-05-04T01:11:59.185Z,15.13
2018-05-04T01:12:30.806Z,15.07
2018-05-04T01:13:02.466Z,13.75
2018-05-04T01:13:34.120Z,15.05
2018-05-04T01:14:05.771Z,15.50
2018-05-04T01:14:37.384Z,12.30
2018-05-04T01:15:09.048Z,13.77
2018-05-04T01:15:40.698Z,13.50
2018-05-04T01:16:12.324Z,13.35
2018-05-04T01:16:43.992Z,12.63
2018-05-04T01:17:15.644Z,14.82
2018-05-04T01:17:47.272Z,21.50
2018-05-04T01:18:18.904Z,13.23
2018-05-04T01:18:50.554Z,16.62
2018-05-04T01:19:22.202Z,12.30
2018-05-04T01:19:53.841Z,12.93
2018-05-04T01:20:25.496Z,18.65
2018-05-04T01:20:57.138Z,15.48
2018-05-04T01:21:28.846Z,14.57
2018-05-04T01:22:00.390Z,13.50
2018-05-04T01:22:32.044Z,15.40
2018-05-04T01:23:03.689Z,11.48
2018-05-04T01:23:35.304Z,12.98
2018-05-04T01:24:06.938Z,12.15
2018-05-04T01:24:38.578Z,15.98
2018-05-04T01:25:10.204Z,17.48
2018-05-04T01:25:41.848Z,17.35
2018-05-04T01:26:13.486Z,14.50
2018-05-04T01:26:45.138Z,13.43
2018-05-04T01:27:16.792Z,13.15
2018-05-04T01:27:48.432Z,13.48
2018-05-04T01:28:20.062Z,14.68
2018-05-04T01:28:51.687Z,14.10
2018-05-04T01:29:23.302Z,14.00
2018-05-04T01:29:54.940Z,17.25
2018-05-04T01:30:26.576Z,20.85
2018-05-04T01:30:58.240Z,17.55
2018-05-04T01:31:29.880Z,16.45
2018-05-04T01:32:01.544Z,18.70
2018-05-04T01:32:33.178Z,17.40
2018-05-04T01:33:04.792Z,17.62
2018-05-04T01:33:36.428Z,15.07
2018-05-04T01:34:08.068Z,14.95
2018-05-04T01:34:39.712Z,15.55
2018-05-04T01:35:11.346Z,17.67
2018-05-04T01:35:42.953Z,15.23
2018-05-04T01:36:14.614Z,15.10
2018-05-04T01:36:46.246Z,11.57
2018-05-04T01:37:17.904Z,13.60
2018-05-04T01:37:49.544Z,13.43
2018-05-04T01:38:21.173Z,14.48
2018-05-04T01:38:52.814Z,15.90
2018-05-04T01:39:24.450Z,13.00
2018-05-04T01:39:56.114Z,16.12
2018-05-04T01:40:27.748Z,14.65
2018-05-04T01:40:59.354Z,13.32
2018-05-04T01:41:30.998Z,14.43
2018-05-04T01:42:02.640Z,16.12
2018-05-04T01:42:34.260Z,15.07
2018-05-04T01:43:05.878Z,13.35
2018-05-04T01:43:37.496Z,19.50
2018-05-04T01:44:09.128Z,16.17
2018-05-04T01:44:40.752Z,14.07
2018-05-04T01:45:12.384Z,12.82
2018-05-04T01:45:44.043Z,14.85
2018-05-04T01:46:15.682Z,14.80
2018-05-04T01:46:47.337Z,15.85
2018-05-04T01:47:18.963Z,17.20
2018-05-04T01:47:50.582Z,12.85
2018-05-04T01:48:22.212Z,15.05
2018-05-04T01:48:53.863Z,13.20
2018-05-04T01:49:25.495Z,14.32
2018-05-04T01:49:57.137Z,13.65
2018-05-04T01:50:28.776Z,14.93
2018-05-04T01:51:00.410Z,17.25
2018-05-04T01:51:32.051Z,15.45
2018-05-04T01:52:03.689Z,14.05
2018-05-04T01:52:35.312Z,18.10
2018-05-04T01:53:06.930Z,12.07
2018-05-04T01:53:38.557Z,13.00
2018-05-04T01:54:10.220Z,14.73
2018-05-04T01:54:41.866Z,16.58
2018-05-04T01:55:13.476Z,15.10
2018-05-04T01:55:45.126Z,14.45
2018-05-04T01:56:16.770Z,14.65
2018-05-04T01:56:48.386Z,12.50
2018-05-04T01:57:20.029Z,16.33
2018-05-04T01:57:51.673Z,15.40
2018-05-04T01:58:23.302Z,14.60
2018-05-04T01:58:54.926Z,13.82
2018-05-04T01:59:26.548Z,13.70
2018-05-04T01:59:58.194Z,12.70
2018-05-04T02:00:29.828Z,16.85
2018-05-04T02:01:01.482Z,16.33
2018-05-04T02:01:33.122Z,15.27
2018-05-04T02:02:04.754Z,13.80
2018-05-04T02:02:36.416Z,14.60
2018-05-04T02:03:08.082Z,18.17
2018-05-04T02:03:39.749Z,14.65
2018-05-04T02:04:11.413Z,12.82
2018-05-04T02:04:43.096Z,13.05
2018-05-04T02:05:14.765Z,16.58
2018-05-04T02:05:46.430Z,13.62
2018-05-04T02:06:18.097Z,16.25
2018-05-04T02:06:49.767Z,16.90
2018-05-04T02:07:21.420Z,15.05
2018-05-04T02:07:53.153Z,18.75
2018-05-04T02:08:24.724Z,15.50
2018-05-04T02:08:56.359Z,15.82
2018-05-04T02:09:27.978Z,14.27
2018-05-04T02:09:59.647Z,18.17
2018-05-04T02:10:31.319Z,16.48
2018-05-04T02:11:02.968Z,14.63
2018-05-04T02:11:34.608Z,15.98
2018-05-04T02:12:06.304Z,14.25
2018-05-04T02:12:37.929Z,19.02
2018-05-04T02:13:09.560Z,19.17
2018-05-04T02:13:41.202Z,14.93
2018-05-04T02:14:12.854Z,17.58
2018-05-04T02:14:44.482Z,16.95
2018-05-04T02:15:16.136Z,15.18
2018-05-04T02:15:47.748Z,14.93
2018-05-04T02:16:19.392Z,13.73
2018-05-04T02:16:51.020Z,14.18
2018-05-04T02:17:22.634Z,15.00
2018-05-04T02:17:54.258Z,13.70
2018-05-04T02:18:25.908Z,12.10
2018-05-04T02:18:57.554Z,15.27
2018-05-04T02:19:29.247Z,18.35
2018-05-04T02:20:00.892Z,14.02
2018-05-04T02:20:32.513Z,19.40
2018-05-04T02:21:04.158Z,13.25
2018-05-04T02:21:35.790Z,16.83
2018-05-04T02:22:07.436Z,12.60
2018-05-04T02:22:39.084Z,12.85
2018-05-04T02:23:10.700Z,14.90
2018-05-04T02:23:42.351Z,16.48
2018-05-04T02:24:13.966Z,13.02
2018-05-04T02:24:45.585Z,11.98
2018-05-04T02:25:17.249Z,16.85
2018-05-04T02:25:48.881Z,14.23
2018-05-04T02:26:20.506Z,17.48
2018-05-04T02:26:52.128Z,13.40
2018-05-04T02:27:23.754Z,16.52
2018-05-04T02:27:55.362Z,14.85
2018-05-04T02:28:27.000Z,14.00
2018-05-04T02:28:58.616Z,16.40
2018-05-04T02:29:30.296Z,13.00
2018-05-04T02:30:01.910Z,14.85
2018-05-04T02:30:33.561Z,14.63
2018-05-04T02:31:05.219Z,11.30
2018-05-04T02:31:36.873Z,15.20
2018-05-04T02:32:08.512Z,20.02
2018-05-04T02:32:40.120Z,13.60
2018-05-04T02:33:11.761Z,14.87
2018-05-04T02:33:43.385Z,13.93
2018-05-04T02:34:15.033Z,13.07
2018-05-04T02:34:46.676Z,13.23
2018-05-04T02:35:18.317Z,15.55
2018-05-04T02:35:49.962Z,14.87
2018-05-04T02:36:21.619Z,13.00
2018-05-04T02:36:53.240Z,15.45
2018-05-04T02:37:24.851Z,15.55
2018-05-04T02:37:56.504Z,17.40
2018-05-04T02:38:28.155Z,13.60
2018-05-04T02:38:59.767Z,15.65
2018-05-04T02:39:31.395Z,12.10
2018-05-04T02:40:03.065Z,14.65
2018-05-04T02:40:34.700Z,12.52
2018-05-04T02:41:06.342Z,13.98
2018-05-04T02:41:38.011Z,18.33
2018-05-04T02:42:09.663Z,15.85
2018-05-04T02:42:41.265Z,15.52
2018-05-04T02:43:12.897Z,16.83
2018-05-04T02:43:44.518Z,14.85
2018-05-04T02:44:16.144Z,15.07
2018-05-04T02:44:47.786Z,16.87
2018-05-04T02:45:19.410Z,14.55
2018-05-04T02:45:51.026Z,14.70
2018-05-04T02:46:22.674Z,13.10
2018-05-04T02:46:54.311Z,15.50
2018-05-04T02:47:25.959Z,16.40
2018-05-04T02:47:57.580Z,14.75
2018-05-04T02:48:29.236Z,14.25
2018-05-04T02:49:00.856Z,13.85
2018-05-04T02:49:33.228Z,17.05
2018-05-04T02:50:04.909Z,13.52
2018-05-04T02:50:36.546Z,13.60
2018-05-04T02:51:08.158Z,15.57
2018-05-04T02:51:39.828Z,13.60
2018-05-04T02:52:11.472Z,16.05
2018-05-04T02:52:43.115Z,16.17
2018-05-04T02:53:14.755Z,13.95
2018-05-04T02:53:46.382Z,15.43
2018-05-04T02:54:17.994Z,17.85
2018-05-04T02:54:49.636Z,13.65
2018-05-04T02:55:21.391Z,15.88
2018-05-04T02:55:52.935Z,12.85
2018-05-04T02:56:24.575Z,16.37
2018-05-04T02:56:56.211Z,11.73
2018-05-04T02:57:27.846Z,15.18
2018-05-04T02:57:59.472Z,17.05
2018-05-04T02:58:31.089Z,14.13
2018-05-04T02:59:02.725Z,12.80
2018-05-04T02:59:34.350Z,13.15
2018-05-04T03:00:06.017Z,15.13
2018-05-04T03:00:37.638Z,14.57
2018-05-04T03:01:09.276Z,14.15
2018-05-04T03:01:40.895Z,13.05
2018-05-04T03:02:12.530Z,13.52
2018-05-04T03:02:44.184Z,16.25
2018-05-04T03:03:15.827Z,13.88
2018-05-04T03:03:47.470Z,18.27
2018-05-04T03:04:19.129Z,12.37
2018-05-04T03:04:50.781Z,15.77
2018-05-04T03:05:22.415Z,15.82
2018-05-04T03:05:54.072Z,14.40
2018-05-04T03:06:25.700Z,13.13
2018-05-04T03:06:57.344Z,18.35
2018-05-04T03:07:28.966Z,13.62
2018-05-04T03:08:00.608Z,13.55
2018-05-04T03:08:32.246Z,13.38
2018-05-04T03:09:03.950Z,13.10
2018-05-04T03:09:35.597Z,11.73
2018-05-04T03:10:07.231Z,11.90
2018-05-04T03:10:38.860Z,15.63
2018-05-04T03:11:10.500Z,17.60
2018-05-04T03:11:42.121Z,15.40
2018-05-04T03:12:13.776Z,15.18
2018-05-04T03:12:45.416Z,14.73
2018-05-04T03:13:17.058Z,14.07
2018-05-04T03:13:48.666Z,11.90
2018-05-04T03:14:20.291Z,13.05
2018-05-04T03:14:51.942Z,12.35
2018-05-04T03:15:23.580Z,14.38
2018-05-04T03:15:55.216Z,13.00
2018-05-04T03:16:26.831Z,14.43
2018-05-04T03:16:58.463Z,16.35
2018-05-04T03:17:30.089Z,12.50
2018-05-04T03:18:01.741Z,13.45
2018-05-04T03:18:33.350Z,14.93
2018-05-04T03:19:04.961Z,12.35
2018-05-04T03:19:36.584Z,14.40
2018-05-04T03:20:08.232Z,13.32
2018-05-04T03:20:39.882Z,13.75
2018-05-04T03:21:11.517Z,13.70
2018-05-04T03:21:43.158Z,12.37
2018-05-04T03:22:14.787Z,14.20
2018-05-04T03:22:46.388Z,12.43
2018-05-04T03:23:18.015Z,11.77
2018-05-04T03:23:49.634Z,13.65
2018-05-04T03:24:21.274Z,12.52
2018-05-04T03:24:52.902Z,10.77
2018-05-04T03:25:24.530Z,10.02
2018-05-04T03:25:56.153Z,10.57
2018-05-04T03:26:27.789Z,11.45
2018-05-04T03:26:59.410Z,10.50
2018-05-04T03:27:31.037Z,9.57
2018-05-04T03:28:02.673Z,15.77
2018-05-04T03:28:34.303Z,11.30
2018-05-04T03:29:05.964Z,11.12
2018-05-04T03:29:37.615Z,12.43
2018-05-04T03:30:09.246Z,12.63
2018-05-04T03:30:40.897Z,14.85
2018-05-04T03:31:12.521Z,13.82
2018-05-04T03:31:44.161Z,13.27
2018-05-04T03:32:15.803Z,18.02
2018-05-04T03:32:47.430Z,13.55
2018-05-04T03:33:19.039Z,11.45
2018-05-04T03:33:50.662Z,14.90
2018-05-04T03:34:22.288Z,10.43
2018-05-04T03:34:53.917Z,10.38
2018-05-04T03:35:25.552Z,10.50
2018-05-04T03:35:57.172Z,15.32
2018-05-04T03:36:28.781Z,12.32
2018-05-04T03:37:00.410Z,11.88
2018-05-04T03:37:32.061Z,13.60
2018-05-04T03:38:03.702Z,12.05
2018-05-04T03:38:35.344Z,12.15
2018-05-04T03:39:06.980Z,13.00
2018-05-04T03:39:38.634Z,14.35
2018-05-04T03:40:10.271Z,10.82
2018-05-04T03:40:41.897Z,11.63
2018-05-04T03:41:13.520Z,10.68
2018-05-04T03:41:45.179Z,11.07
2018-05-04T03:42:16.804Z,11.00
2018-05-04T03:42:48.490Z,12.73
2018-05-04T03:43:20.104Z,13.00
2018-05-04T03:43:51.750Z,13.65
2018-05-04T03:44:23.444Z,11.93
2018-05-04T03:44:55.130Z,12.90
2018-05-04T03:45:26.766Z,12.85
2018-05-04T03:45:58.384Z,13.77
2018-05-04T03:46:30.052Z,15.52
2018-05-04T03:47:01.708Z,16.50
2018-05-04T03:47:33.335Z,11.65
2018-05-04T03:48:04.986Z,15.40
2018-05-04T03:48:36.605Z,11.00
2018-05-04T03:49:08.224Z,12.60
2018-05-04T03:49:39.850Z,10.65
2018-05-04T03:50:11.498Z,12.55
2018-05-04T03:50:43.156Z,13.73
2018-05-04T03:51:14.794Z,13.90
2018-05-04T03:51:46.432Z,12.15
2018-05-04T03:52:18.054Z,11.25
2018-05-04T03:52:49.684Z,16.42
2018-05-04T03:53:21.328Z,15.30
2018-05-04T03:53:52.950Z,13.77
2018-05-04T03:54:24.550Z,10.70
2018-05-04T03:54:56.177Z,15.18
2018-05-04T03:55:27.816Z,12.90
2018-05-04T03:55:59.457Z,14.50
2018-05-04T03:56:31.067Z,14.25
2018-05-04T03:57:21.348Z,12.88
2018-05-04T03:58:11.581Z,12.00
2018-05-04T03:59:01.962Z,12.88
2018-05-04T03:59:52.228Z,13.27
2018-05-04T04:00:42.260Z,13.18
2018-05-04T04:01:32.564Z,11.30
2018-05-04T04:02:22.692Z,10.73
2018-05-04T04:03:12.748Z,11.25
2018-05-04T04:04:03.020Z,10.95
2018-05-04T04:04:34.684Z,10.82
2018-05-04T04:05:06.327Z,16.45
2018-05-04T04:05:37.964Z,11.75
2018-05-04T04:06:09.602Z,13.68
2018-05-04T04:06:41.247Z,13.73
2018-05-04T04:07:12.860Z,12.18
2018-05-04T04:07:44.486Z,11.05
2018-05-04T04:08:16.120Z,12.48
2018-05-04T04:08:47.744Z,13.95
2018-05-04T04:09:19.384Z,14.52
2018-05-04T04:09:51.032Z,15.02
2018-05-04T04:10:22.676Z,15.52
2018-05-04T04:10:54.318Z,9.95
2018-05-04T04:11:25.953Z,11.38
2018-05-04T04:11:57.592Z,14.18
2018-05-04T04:12:29.253Z,16.25
2018-05-04T04:13:00.888Z,12.43
2018-05-04T04:13:32.528Z,10.73
2018-05-04T04:14:04.168Z,13.20
2018-05-04T04:14:35.826Z,12.65
2018-05-04T04:15:07.460Z,14.45
2018-05-04T04:15:39.108Z,12.02
2018-05-04T04:16:10.744Z,13.45
2018-05-04T04:16:42.384Z,13.30
2018-05-04T04:17:14.021Z,13.57
2018-05-04T04:17:45.653Z,12.55
2018-05-04T04:18:17.266Z,10.35
2018-05-04T04:18:48.912Z,11.23
2018-05-04T04:19:20.536Z,11.70
2018-05-04T04:19:52.160Z,12.88
2018-05-04T04:20:23.796Z,11.98
2018-05-04T04:20:55.422Z,12.45
2018-05-04T04:21:27.062Z,15.73
2018-05-04T04:21:58.710Z,16.67
2018-05-04T04:22:30.360Z,17.27
2018-05-04T04:23:01.982Z,13.65
2018-05-04T04:23:33.616Z,12.40
2018-05-04T04:24:05.280Z,16.30
2018-05-04T04:24:36.926Z,12.32
2018-05-04T04:25:08.597Z,12.55
2018-05-04T04:25:40.231Z,14.57
2018-05-04T04:26:11.864Z,14.63
2018-05-04T04:26:43.508Z,14.52
2018-05-04T04:27:15.136Z,14.18
2018-05-04T04:27:46.762Z,13.57
2018-05-04T04:28:18.399Z,15.52
2018-05-04T04:28:50.048Z,16.17
2018-05-04T04:29:21.678Z,15.75
2018-05-04T04:29:53.289Z,18.58
2018-05-04T04:30:24.919Z,18.55
2018-05-04T04:30:56.556Z,16.80
2018-05-04T04:31:28.209Z,16.42
2018-05-04T04:31:59.851Z,16.67
2018-05-04T04:32:31.469Z,14.15
2018-05-04T04:33:03.124Z,14.13
2018-05-04T04:33:34.746Z,14.98
2018-05-04T04:34:06.386Z,18.33
2018-05-04T04:34:38.031Z,15.77
2018-05-04T04:35:09.694Z,15.48
2018-05-04T04:35:41.372Z,17.25
2018-05-04T04:36:13.020Z,15.93
2018-05-04T04:36:44.637Z,19.10
2018-05-04T04:37:16.271Z,15.77
2018-05-04T04:37:47.911Z,17.95
2018-05-04T04:38:19.528Z,13.50
2018-05-04T04:38:51.251Z,17.08
2018-05-04T04:39:22.814Z,12.20
2018-05-04T04:39:54.422Z,17.00
2018-05-04T04:40:26.067Z,14.02
2018-05-04T04:40:57.703Z,15.85
2018-05-04T04:41:29.334Z,16.08
2018-05-04T04:42:00.966Z,25.73
2018-05-04T04:42:32.600Z,20.98
2018-05-04T04:43:04.229Z,18.60
2018-05-04T04:43:35.875Z,19.08
2018-05-04T04:44:07.516Z,23.50
2018-05-04T04:44:39.150Z,24.85
2018-05-04T04:45:10.784Z,24.33
2018-05-04T04:45:42.421Z,19.75
2018-05-04T04:46:14.047Z,17.52
2018-05-04T04:46:45.682Z,22.42
2018-05-04T04:47:17.310Z,17.25
2018-05-04T04:47:48.922Z,19.80
2018-05-04T04:48:20.548Z,20.25
2018-05-04T04:48:52.197Z,20.92
2018-05-04T04:49:23.835Z,22.52
2018-05-04T04:49:55.473Z,20.25
2018-05-04T04:50:27.113Z,24.85
2018-05-04T04:50:58.734Z,21.40
2018-05-04T04:51:30.373Z,20.75
2018-05-04T04:52:02.040Z,21.67
2018-05-04T04:52:33.671Z,21.80
2018-05-04T04:53:05.292Z,20.88
2018-05-04T04:53:36.912Z,25.85
2018-05-04T04:54:08.542Z,31.70
2018-05-04T04:54:40.158Z,26.45
2018-05-04T04:55:11.780Z,27.55
2018-05-04T04:55:43.421Z,27.85
2018-05-04T04:56:15.053Z,25.27
2018-05-04T04:56:46.666Z,30.40
2018-05-04T04:57:18.303Z,28.95
2018-05-04T04:57:49.933Z,29.02
2018-05-04T04:58:21.573Z,31.15
2018-05-04T04:58:53.188Z,28.38
2018-05-04T04:59:24.798Z,34.78
2018-05-04T04:59:56.424Z,29.60
2018-05-04T05:00:28.110Z,31.15
2018-05-04T05:00:59.770Z,38.35
2018-05-04T05:01:31.414Z,34.20
2018-05-04T05:02:03.073Z,33.47
2018-05-04T05:02:34.703Z,32.90
2018-05-04T05:03:06.313Z,31.25
2018-05-04T05:03:37.917Z,33.55
2018-05-04T05:04:09.585Z,30.80
2018-05-04T05:04:41.214Z,31.80
2018-05-04T05:05:12.832Z,28.35
2018-05-04T05:05:44.483Z,27.23
2018-05-04T05:06:16.110Z,34.90
2018-05-04T05:06:47.734Z,31.52
2018-05-04T05:07:19.360Z,32.97
2018-05-04T05:07:51.000Z,30.77
2018-05-04T05:08:22.628Z,31.85
2018-05-04T05:08:54.258Z,30.62
2018-05-04T05:09:25.867Z,30.70
2018-05-04T05:09:57.520Z,35.38
2018-05-04T05:10:29.164Z,30.30
2018-05-04T05:11:00.791Z,28.42
2018-05-04T05:11:32.438Z,33.28
2018-05-04T05:12:04.108Z,34.35
2018-05-04T05:12:35.754Z,28.83
2018-05-04T05:13:07.395Z,32.97
2018-05-04T05:13:39.044Z,36.40
2018-05-04T05:14:10.683Z,27.85
2018-05-04T05:14:42.308Z,35.10
2018-05-04T05:15:13.929Z,31.52
2018-05-04T05:15:45.563Z,33.75
2018-05-04T05:16:17.190Z,34.40
2018-05-04T05:16:48.822Z,31.92
2018-05-04T05:17:20.465Z,33.75
2018-05-04T05:17:52.131Z,38.00
2018-05-04T05:18:23.774Z,37.83
2018-05-04T05:18:55.401Z,42.17
2018-05-04T05:19:27.027Z,38.15
2018-05-04T05:19:58.670Z,35.08
2018-05-04T05:20:30.288Z,33.90
2018-05-04T05:21:01.924Z,35.25
2018-05-04T05:21:33.564Z,31.42
2018-05-04T05:22:05.244Z,34.53
2018-05-04T05:22:36.833Z,34.33
2018-05-04T05:23:08.479Z,37.58
2018-05-04T05:23:40.115Z,31.33
2018-05-04T05:24:11.751Z,38.97
2018-05-04T05:24:43.357Z,32.53
2018-05-04T05:25:14.977Z,35.63
2018-05-04T05:25:46.602Z,31.25
2018-05-04T05:26:18.264Z,28.77
2018-05-04T05:26:49.934Z,33.85
2018-05-04T05:27:21.555Z,33.72
2018-05-04T05:27:53.212Z,41.90
2018-05-04T05:28:24.852Z,35.53
2018-05-04T05:28:56.492Z,34.03
2018-05-04T05:29:28.138Z,27.83
2018-05-04T05:29:59.777Z,30.85
2018-05-04T05:30:31.415Z,28.35
2018-05-04T05:31:03.043Z,26.02
2018-05-04T05:31:34.686Z,26.98
2018-05-04T05:32:06.319Z,24.48
2018-05-04T05:32:37.941Z,23.27
2018-05-04T05:33:09.573Z,28.70
2018-05-04T05:33:41.212Z,20.17
2018-05-04T05:34:12.859Z,20.20
2018-05-04T05:34:44.479Z,19.35
2018-05-04T05:35:16.098Z,23.15
2018-05-04T05:35:47.715Z,19.37
2018-05-04T05:36:19.356Z,20.05
2018-05-04T05:36:50.999Z,25.98
2018-05-04T05:37:22.635Z,19.67
2018-05-04T05:37:54.258Z,17.92
2018-05-04T05:38:25.889Z,19.15
2018-05-04T05:38:57.527Z,19.83
2018-05-04T05:39:29.130Z,21.98
2018-05-04T05:40:00.744Z,16.87
2018-05-04T05:40:32.377Z,23.12
2018-05-04T05:41:04.000Z,17.77
2018-05-04T05:41:35.625Z,16.85
2018-05-04T05:42:07.253Z,17.20
2018-05-04T05:42:38.896Z,15.20
2018-05-04T05:43:10.524Z,16.35
2018-05-04T05:43:42.161Z,19.27
2018-05-04T05:44:13.774Z,18.95
2018-05-04T05:44:45.409Z,13.23
2018-05-04T05:45:17.019Z,14.85
2018-05-04T05:45:48.648Z,15.77
2018-05-04T05:46:20.296Z,16.65
2018-05-04T05:46:51.919Z,16.48
2018-05-04T05:47:23.538Z,14.48
2018-05-04T05:47:55.197Z,17.60
2018-05-04T05:48:26.850Z,15.85
2018-05-04T05:48:58.487Z,18.37
2018-05-04T05:49:30.122Z,14.75
2018-05-04T05:50:01.763Z,16.58
2018-05-04T05:50:33.436Z,15.73
2018-05-04T05:51:05.086Z,19.77
2018-05-04T05:51:36.730Z,14.93
2018-05-04T05:52:08.404Z,15.95
2018-05-04T05:52:40.019Z,14.00
2018-05-04T05:53:11.659Z,17.15
2018-05-04T05:53:43.301Z,12.52
2018-05-04T05:54:14.938Z,12.68
2018-05-04T05:54:46.574Z,17.80
2018-05-04T05:55:18.228Z,16.48
2018-05-04T05:55:49.896Z,16.62
2018-05-04T05:56:21.538Z,15.77
2018-05-04T05:56:53.179Z,13.38
2018-05-04T05:57:24.823Z,19.15
2018-05-04T05:57:56.510Z,19.62
2018-05-04T05:58:28.106Z,17.73
2018-05-04T05:58:59.720Z,16.40
2018-05-04T05:59:31.356Z,15.85
2018-05-04T06:00:03.034Z,17.12
2018-05-04T06:00:34.674Z,16.85
2018-05-04T06:01:06.296Z,18.42
2018-05-04T06:01:37.934Z,21.90
2018-05-04T06:02:09.596Z,17.27
2018-05-04T06:02:41.218Z,14.95
2018-05-04T06:03:12.860Z,13.38
2018-05-04T06:03:44.518Z,17.50
2018-05-04T06:04:16.148Z,13.57
2018-05-04T06:04:47.778Z,16.50
2018-05-04T06:05:19.426Z,19.58
2018-05-04T06:05:51.063Z,20.27
2018-05-04T06:06:22.696Z,17.67
2018-05-04T06:06:54.328Z,16.33
2018-05-04T06:07:25.945Z,18.67
2018-05-04T06:07:57.576Z,17.52
2018-05-04T06:08:29.186Z,17.73
2018-05-04T06:09:00.786Z,19.05
2018-05-04T06:09:32.406Z,18.62
2018-05-04T06:10:04.043Z,16.23
2018-05-04T06:10:35.668Z,19.67
2018-05-04T06:11:07.287Z,18.75
2018-05-04T06:11:38.929Z,16.50
2018-05-04T06:12:10.584Z,14.80
2018-05-04T06:12:42.238Z,14.60
2018-05-04T06:13:13.836Z,15.85
2018-05-04T06:13:45.466Z,13.38
2018-05-04T06:14:17.110Z,13.82
2018-05-04T06:14:48.775Z,16.15
2018-05-04T06:15:20.396Z,15.32
2018-05-04T06:15:52.028Z,16.92
2018-05-04T06:16:23.682Z,16.87
2018-05-04T06:16:55.326Z,11.95
2018-05-04T06:17:26.950Z,16.10
2018-05-04T06:17:58.574Z,13.98
2018-05-04T06:18:30.208Z,19.92
2018-05-04T06:19:01.850Z,13.75
2018-05-04T06:19:33.489Z,14.93
2018-05-04T06:20:05.138Z,13.57
2018-05-04T06:20:36.780Z,16.50
2018-05-04T06:21:08.408Z,22.42
2018-05-04T06:21:40.044Z,16.42
2018-05-04T06:22:11.682Z,13.30
2018-05-04T06:22:43.316Z,13.52
2018-05-04T06:23:14.958Z,15.30
2018-05-04T06:23:46.606Z,15.93
2018-05-04T06:24:18.238Z,15.95
2018-05-04T06:24:49.867Z,13.10
2018-05-04T06:25:21.492Z,15.32
2018-05-04T06:25:53.138Z,14.18
2018-05-04T06:26:24.767Z,16.00
2018-05-04T06:26:56.386Z,16.40
2018-05-04T06:27:28.017Z,16.87
2018-05-04T06:27:59.653Z,18.23
2018-05-04T06:28:31.312Z,17.58
2018-05-04T06:29:02.977Z,13.93
2018-05-04T06:29:34.624Z,19.77
2018-05-04T06:30:06.263Z,17.42
2018-05-04T06:30:37.892Z,16.73
2018-05-04T06:31:09.522Z,16.65
2018-05-04T06:31:41.160Z,12.70
2018-05-04T06:32:12.792Z,24.25
2018-05-04T06:32:44.450Z,15.98
2018-05-04T06:33:16.078Z,19.02
2018-05-04T06:33:47.764Z,16.85
2018-05-04T06:34:19.357Z,15.98
2018-05-04T06:34:51.062Z,17.90
2018-05-04T06:35:22.688Z,16.30
2018-05-04T06:35:54.302Z,17.40
2018-05-04T06:36:25.970Z,13.50
2018-05-04T06:36:57.594Z,15.02
2018-05-04T06:37:29.246Z,15.70
2018-05-04T06:38:00.866Z,13.37
2018-05-04T06:38:32.500Z,15.93
2018-05-04T06:39:04.218Z,12.88
2018-05-04T06:39:35.900Z,15.32
2018-05-04T06:40:07.500Z,18.25
2018-05-04T06:40:39.134Z,14.07
2018-05-04T06:41:10.762Z,17.00
2018-05-04T06:41:42.396Z,17.40
2018-05-04T06:42:14.042Z,16.37
2018-05-04T06:42:45.684Z,15.35
2018-05-04T06:43:17.303Z,16.58
2018-05-04T06:43:48.920Z,17.73
2018-05-04T06:44:20.562Z,17.10
2018-05-04T06:44:52.184Z,19.45
2018-05-04T06:45:23.816Z,16.45
2018-05-04T06:45:55.452Z,19.08
2018-05-04T06:46:27.110Z,15.30
2018-05-04T06:46:58.734Z,16.73
2018-05-04T06:47:30.400Z,18.75
2018-05-04T06:48:02.050Z,15.20
2018-05-04T06:48:33.702Z,21.80
2018-05-04T06:49:05.323Z,20.33
2018-05-04T06:49:36.960Z,18.73
2018-05-04T06:50:08.593Z,12.82
2018-05-04T06:50:40.220Z,15.57